Time,TemperatureF,DewpointF,PressureIn,WindDirection,WindDirectionDegrees,WindSpeedMPH,WindSpeedGustMPH,Humidity,HourlyPrecipIn,Conditions,Clouds,dailyrainin,SoftwareType,DateUTC
2013-07-09 00:08:00,58.6,38.0,29.76,SW,233,17.0,-999.0,46,-99.99,,,0.00,weatherlink.com 1.10,2013-07-09 06:08:00,
2013-07-09 00:23:00,59.0,38.0,29.76,West,265,11.0,-999.0,45,-99.99,,,0.00,weatherlink.com 1.10,2013-07-09 06:23:00,
2013-07-09 00:38:00,58.5,38.0,29.77,WSW,243,14.0,-999.0,46,-99.99,,,0.00,weatherlink.com 1.10,2013-07-09 06:38:00,
2013-07-09 00:53:00,58.5,38.0,29.77,WSW,248,8.0,-999.0,46,-99.99,,,0.00,weatherlink.com 1.10,2013-07-09 06:53:00,
2013-07-09 01:08:00,58.4,37.0,29.76,WSW,248,13.0,-999.0,45,-99.99,,,0.00,weatherlink.com 1.10,2013-07-09 07:08:00,
2013-07-09 01:23:00,58.6,37.0,29.76,WNW,284,9.0,-999.0,45,-99.99,,,0.00,weatherlink.com 1.10,2013-07-09 07:23:00,
2013-07-09 01:38:00,58.0,37.0,29.76,WNW,286,4.0,-999.0,46,-99.99,,,0.00,weatherlink.com 1.10,2013-07-09 07:38:00,
2013-07-09 01:54:00,57.5,37.0,29.75,WNW,298,11.0,-999.0,47,-99.99,,,0.00,weatherlink.com 1.10,2013-07-09 07:54:00,
2013-07-09 02:09:00,57.2,37.0,29.75,WSW,242,11.0,-999.0,48,-99.99,,,0.00,weatherlink.com 1.10,2013-07-09 08:09:00,
2013-07-09 02:24:00,57.3,38.0,29.76,WSW,254,12.0,-999.0,48,-99.99,,,0.00,weatherlink.com 1.10,2013-07-09 08:24:00,
2013-07-09 02:39:00,56.8,37.0,29.76,WSW,246,14.0,-999.0,48,-99.99,,,0.00,weatherlink.com 1.10,2013-07-09 08:39:00,
2013-07-09 02:54:00,56.6,37.0,29.76,WSW,246,11.0,-999.0,48,-99.99,,,0.00,weatherlink.com 1.10,2013-07-09 08:54:00,
2013-07-09 03:09:00,56.6,37.0,29.75,WSW,240,10.0,-999.0,48,-99.99,,,0.00,weatherlink.com 1.10,2013-07-09 09:09:00,
2013-07-09 03:24:00,56.4,37.0,29.76,SW,227,11.0,-999.0,49,-99.99,,,0.00,weatherlink.com 1.10,2013-07-09 09:24:00,
2013-07-09 03:39:00,56.8,37.0,29.75,WSW,246,10.0,-999.0,48,-99.99,,,0.00,weatherlink.com 1.10,2013-07-09 09:39:00,
2013-07-09 03:54:00,56.5,37.0,29.76,SSW,207,10.0,-999.0,49,-99.99,,,0.00,weatherlink.com 1.10,2013-07-09 09:54:00,
2013-07-09 04:09:00,56.8,37.0,29.76,SW,221,15.0,-999.0,48,-99.99,,,0.00,weatherlink.com 1.10,2013-07-09 10:09:00,
2013-07-09 04:24:00,56.7,37.0,29.76,SW,219,12.0,-999.0,48,-99.99,,,0.00,weatherlink.com 1.10,2013-07-09 10:24:00,
2013-07-09 04:39:00,57.0,37.0,29.76,WSW,238,9.0,-999.0,47,-99.99,,,0.00,weatherlink.com 1.10,2013-07-09 10:39:00,
2013-07-09 04:55:00,56.2,37.0,29.76,WSW,238,9.0,-999.0,49,-99.99,,,0.00,weatherlink.com 1.10,2013-07-09 10:55:00,
2013-07-09 05:10:00,56.7,36.0,29.76,SSW,211,15.0,-999.0,47,-99.99,,,0.00,weatherlink.com 1.10,2013-07-09 11:10:00,
2013-07-09 05:25:00,56.9,36.0,29.77,SSW,204,10.0,-999.0,46,-99.99,,,0.00,weatherlink.com 1.10,2013-07-09 11:25:00,
2013-07-09 05:40:00,57.6,36.0,29.77,SW,224,19.0,-999.0,44,-99.99,,,0.00,weatherlink.com 1.10,2013-07-09 11:40:00,
2013-07-09 05:55:00,57.2,36.0,29.77,SW,221,13.0,-999.0,46,-99.99,,,0.00,weatherlink.com 1.10,2013-07-09 11:55:00,
2013-07-09 06:10:00,56.6,36.0,29.78,SW,216,13.0,-999.0,47,-99.99,,,0.00,weatherlink.com 1.10,2013-07-09 12:10:00,
2013-07-09 06:25:00,57.0,36.0,29.78,SW,231,14.0,-999.0,45,-99.99,,,0.00,weatherlink.com 1.10,2013-07-09 12:25:00,
2013-07-09 06:40:00,56.7,36.0,29.79,WSW,250,10.0,-999.0,46,-99.99,,,0.00,weatherlink.com 1.10,2013-07-09 12:40:00,
2013-07-09 06:56:00,56.8,36.0,29.79,WSW,246,9.0,-999.0,46,-99.99,,,0.00,weatherlink.com 1.10,2013-07-09 12:56:00,
2013-07-09 07:11:00,57.1,36.0,29.80,WSW,248,9.0,-999.0,46,-99.99,,,0.00,weatherlink.com 1.10,2013-07-09 13:11:00,
2013-07-09 07:26:00,57.6,36.0,29.80,West,262,11.0,-999.0,45,-99.99,,,0.00,weatherlink.com 1.10,2013-07-09 13:26:00,
2013-07-09 07:41:00,58.2,37.0,29.81,West,279,12.0,-999.0,45,-99.99,,,0.00,weatherlink.com 1.10,2013-07-09 13:41:00,
2013-07-09 07:56:00,58.9,37.0,29.81,NW,307,9.0,-999.0,45,-99.99,,,0.00,weatherlink.com 1.10,2013-07-09 13:56:00,
2013-07-09 08:11:00,59.6,38.0,29.82,WNW,284,10.0,-999.0,45,-99.99,,,0.00,weatherlink.com 1.10,2013-07-09 14:11:00,
2013-07-09 08:27:00,61.2,40.0,29.82,WNW,284,7.0,-999.0,45,-99.99,,,0.00,weatherlink.com 1.10,2013-07-09 14:27:00,
2013-07-09 08:42:00,62.0,38.0,29.83,WNW,288,11.0,-999.0,42,-99.99,,,0.00,weatherlink.com 1.10,2013-07-09 14:42:00,
2013-07-09 08:57:00,63.4,39.0,29.83,West,267,5.0,-999.0,41,-99.99,,,0.00,weatherlink.com 1.10,2013-07-09 14:57:00,
2013-07-09 09:12:00,64.3,39.0,29.83,West,265,2.0,-999.0,40,-99.99,,,0.00,weatherlink.com 1.10,2013-07-09 15:12:00,
2013-07-09 09:28:00,65.1,38.0,29.82,SW,223,7.0,-999.0,37,-99.99,,,0.00,weatherlink.com 1.10,2013-07-09 15:28:00,
2013-07-09 09:43:00,66.0,37.0,29.82,NW,321,3.0,-999.0,35,-99.99,,,0.00,weatherlink.com 1.10,2013-07-09 15:43:00,
2013-07-09 09:58:00,67.4,37.0,29.83,SW,223,2.0,-999.0,33,-99.99,,,0.00,weatherlink.com 1.10,2013-07-09 15:58:00,
2013-07-09 10:13:00,67.2,38.0,29.83,SW,226,7.0,-999.0,34,-99.99,,,0.00,weatherlink.com 1.10,2013-07-09 16:13:00,
2013-07-09 10:28:00,68.6,37.0,29.83,WSW,258,9.0,-999.0,31,-99.99,,,0.00,weatherlink.com 1.10,2013-07-09 16:28:00,
2013-07-09 10:43:00,69.1,35.0,29.83,West,279,7.0,-999.0,29,-99.99,,,0.00,weatherlink.com 1.10,2013-07-09 16:43:00,
2013-07-09 10:59:00,69.1,33.0,29.84,West,265,7.0,-999.0,26,-99.99,,,0.00,weatherlink.com 1.10,2013-07-09 16:59:00,
2013-07-09 11:14:00,69.0,33.0,29.83,SW,228,9.0,-999.0,26,-99.99,,,0.00,weatherlink.com 1.10,2013-07-09 17:14:00,
2013-07-09 11:29:00,70.1,29.0,29.84,SSW,204,8.0,-999.0,22,-99.99,,,0.00,weatherlink.com 1.10,2013-07-09 17:29:00,
2013-07-09 11:45:00,72.8,29.0,29.84,WNW,284,4.0,-999.0,20,-99.99,,,0.00,weatherlink.com 1.10,2013-07-09 17:45:00,
2013-07-09 11:59:00,71.6,27.0,29.84,WNW,284,0.0,-999.0,19,-99.99,,,0.00,weatherlink.com 1.10,2013-07-09 17:59:00,
2013-07-09 12:15:00,72.3,29.0,29.84,WSW,255,6.0,-999.0,20,-99.99,,,0.00,weatherlink.com 1.10,2013-07-09 18:15:00,
2013-07-09 12:31:00,71.9,30.0,29.83,NNW,331,7.0,-999.0,21,-99.99,,,0.00,weatherlink.com 1.10,2013-07-09 18:31:00,
2013-07-09 12:45:00,69.2,32.0,29.83,WSW,257,1.0,-999.0,25,-99.99,,,0.00,weatherlink.com 1.10,2013-07-09 18:45:00,
2013-07-09 13:00:00,69.4,33.0,29.83,NW,321,3.0,-999.0,26,-99.99,,,0.00,weatherlink.com 1.10,2013-07-09 19:00:00,
2013-07-09 13:15:00,67.0,35.0,29.83,SW,227,5.0,-999.0,31,-99.99,,,0.00,weatherlink.com 1.10,2013-07-09 19:15:00,
2013-07-09 13:30:00,70.0,37.0,29.83,West,281,4.0,-999.0,30,-99.99,,,0.00,weatherlink.com 1.10,2013-07-09 19:30:00,
2013-07-09 13:46:00,71.7,35.0,29.82,SW,223,8.0,-999.0,26,-99.99,,,0.00,weatherlink.com 1.10,2013-07-09 19:46:00,
2013-07-09 14:01:00,70.4,33.0,29.82,WSW,250,9.0,-999.0,25,-99.99,,,0.00,weatherlink.com 1.10,2013-07-09 20:01:00,
2013-07-09 14:16:00,70.7,33.0,29.81,West,261,1.0,-999.0,25,-99.99,,,0.00,weatherlink.com 1.10,2013-07-09 20:16:00,
2013-07-09 14:31:00,71.2,31.0,29.81,SW,228,4.0,-999.0,23,-99.99,,,0.00,weatherlink.com 1.10,2013-07-09 20:31:00,
2013-07-09 14:46:00,70.7,32.0,29.81,NW,309,2.0,-999.0,24,-99.99,,,0.00,weatherlink.com 1.10,2013-07-09 20:46:00,
2013-07-09 15:01:00,70.3,33.0,29.81,West,261,8.0,-999.0,25,-99.99,,,0.00,weatherlink.com 1.10,2013-07-09 21:01:00,
2013-07-09 15:16:00,70.3,33.0,29.81,SW,226,12.0,-999.0,25,-99.99,,,0.00,weatherlink.com 1.10,2013-07-09 21:16:00,
2013-07-09 15:32:00,68.5,33.0,29.81,SSW,197,13.0,-999.0,27,-99.99,,,0.00,weatherlink.com 1.10,2013-07-09 21:32:00,
2013-07-09 15:47:00,69.5,32.0,29.81,SW,234,8.0,-999.0,25,-99.99,,,0.00,weatherlink.com 1.10,2013-07-09 21:47:00,
2013-07-09 16:02:00,68.1,40.0,29.80,SW,223,2.0,-999.0,36,-99.99,,,0.00,weatherlink.com 1.10,2013-07-09 22:02:00,
2013-07-09 16:17:00,69.0,42.0,29.81,West,273,5.0,-999.0,37,-99.99,,,0.00,weatherlink.com 1.10,2013-07-09 22:17:00,
2013-07-09 16:32:00,68.5,37.0,29.81,West,268,3.0,-999.0,32,-99.99,,,0.00,weatherlink.com 1.10,2013-07-09 22:32:00,
2013-07-09 16:47:00,67.6,36.0,29.81,NW,304,1.0,-999.0,31,-99.99,,,0.00,weatherlink.com 1.10,2013-07-09 22:47:00,
2013-07-09 17:18:00,63.7,35.0,29.82,SSE,168,20.0,-999.0,34,-99.99,,,0.00,weatherlink.com 1.10,2013-07-09 23:18:00,
2013-07-09 17:33:00,63.3,36.0,29.82,SE,133,7.0,-999.0,36,-99.99,,,0.00,weatherlink.com 1.10,2013-07-09 23:33:00,
2013-07-09 17:48:00,62.6,37.0,29.82,SSE,163,8.0,-999.0,39,-99.99,,,0.00,weatherlink.com 1.10,2013-07-09 23:48:00,
2013-07-09 18:03:00,62.8,36.0,29.82,SSW,213,4.0,-999.0,37,-99.99,,,0.00,weatherlink.com 1.10,2013-07-10 00:03:00,
2013-07-09 18:18:00,62.0,39.0,29.81,South,175,11.0,-999.0,43,-99.99,,,0.00,weatherlink.com 1.10,2013-07-10 00:18:00,
2013-07-09 18:34:00,63.4,37.0,29.80,SE,142,4.0,-999.0,38,-99.99,,,0.00,weatherlink.com 1.10,2013-07-10 00:34:00,
2013-07-09 18:49:00,64.2,37.0,29.79,ESE,117,8.0,-999.0,36,-99.99,,,0.00,weatherlink.com 1.10,2013-07-10 00:49:00,
2013-07-09 19:04:00,63.7,37.0,29.79,ESE,108,4.0,-999.0,38,-99.99,,,0.00,weatherlink.com 1.10,2013-07-10 01:04:00,
2013-07-09 19:19:00,63.5,37.0,29.79,ESE,109,4.0,-999.0,38,-99.99,,,0.00,weatherlink.com 1.10,2013-07-10 01:19:00,
2013-07-09 19:34:00,62.6,36.0,29.78,SE,131,1.0,-999.0,37,-99.99,,,0.00,weatherlink.com 1.10,2013-07-10 01:34:00,
2013-07-09 19:49:00,62.1,37.0,29.78,SE,132,5.0,-999.0,40,-99.99,,,0.00,weatherlink.com 1.10,2013-07-10 01:49:00,
2013-07-09 20:04:00,61.8,37.0,29.78,SE,144,8.0,-999.0,40,-99.99,,,0.00,weatherlink.com 1.10,2013-07-10 02:04:00,
2013-07-09 20:20:00,61.6,37.0,29.78,South,171,12.0,-999.0,41,-99.99,,,0.00,weatherlink.com 1.10,2013-07-10 02:20:00,
2013-07-09 20:35:00,61.8,37.0,29.78,SSE,166,19.0,-999.0,40,-99.99,,,0.00,weatherlink.com 1.10,2013-07-10 02:35:00,
2013-07-09 20:50:00,64.1,33.0,29.78,SSE,161,11.0,-999.0,32,-99.99,,,0.00,weatherlink.com 1.10,2013-07-10 02:50:00,
2013-07-09 21:05:00,63.3,34.0,29.78,South,182,7.0,-999.0,33,-99.99,,,0.00,weatherlink.com 1.10,2013-07-10 03:05:00,
2013-07-09 21:20:00,62.5,36.0,29.79,South,189,7.0,-999.0,37,-99.99,,,0.00,weatherlink.com 1.10,2013-07-10 03:20:00,
2013-07-09 21:35:00,62.1,36.0,29.80,SSE,165,11.0,-999.0,38,-99.99,,,0.00,weatherlink.com 1.10,2013-07-10 03:35:00,
2013-07-09 21:51:00,62.7,37.0,29.80,SSE,167,9.0,-999.0,38,-99.99,,,0.00,weatherlink.com 1.10,2013-07-10 03:51:00,
2013-07-09 22:06:00,62.4,36.0,29.80,SSW,192,11.0,-999.0,38,-99.99,,,0.00,weatherlink.com 1.10,2013-07-10 04:06:00,
2013-07-09 22:21:00,62.3,38.0,29.80,South,186,10.0,-999.0,40,-99.99,,,0.00,weatherlink.com 1.10,2013-07-10 04:21:00,
2013-07-09 22:37:00,61.7,38.0,29.79,SSE,165,12.0,-999.0,41,-99.99,,,0.00,weatherlink.com 1.10,2013-07-10 04:37:00,
2013-07-09 22:51:00,62.2,37.0,29.79,SSE,157,8.0,-999.0,40,-99.99,,,0.00,weatherlink.com 1.10,2013-07-10 04:51:00,
2013-07-09 23:06:00,61.7,37.0,29.80,SSE,153,9.0,-999.0,40,-99.99,,,0.00,weatherlink.com 1.10,2013-07-10 05:06:00,
2013-07-09 23:21:00,61.4,37.0,29.80,SE,143,4.0,-999.0,40,-99.99,,,0.00,weatherlink.com 1.10,2013-07-10 05:21:00,
2013-07-09 23:37:00,63.0,36.0,29.80,SSE,148,0.0,-999.0,37,-99.99,,,0.00,weatherlink.com 1.10,2013-07-10 05:37:00,
2013-07-09 23:52:00,60.8,37.0,29.81,ESE,114,0.0,-999.0,41,-99.99,,,0.00,weatherlink.com 1.10,2013-07-10 05:52:00,